sensor_id;sensor_type;location;lat;lon;timestamp;P1;durP1;ratioP1;P2;durP2;ratioP2
26502;SDS011;14177;51.520;6.764;2022-09-02T06:13:59;8.38;;;1.67;;
26502;SDS011;14177;51.520;6.764;2022-09-02T06:16:27;6.00;;;1.95;;
26502;SDS011;14177;51.520;6.764;2022-09-02T06:18:54;11.60;;;1.77;;
26502;SDS011;14177;51.520;6.764;2022-09-02T06:21:21;14.18;;;1.85;;
26502;SDS011;14177;51.520;6.764;2022-09-02T06:23:51;6.63;;;1.90;;
26502;SDS011;14177;51.520;6.764;2022-09-02T06:26:18;6.07;;;1.75;;
26502;SDS011;14177;51.520;6.764;2022-09-02T06:28:45;9.50;;;1.60;;
26502;SDS011;14177;51.520;6.764;2022-09-02T06:31:15;4.50;;;1.23;;
26502;SDS011;14177;51.520;6.764;2022-09-02T06:33:46;6.38;;;1.70;;
26502;SDS011;14177;51.520;6.764;2022-09-02T06:36:18;7.57;;;1.27;;
26502;SDS011;14177;51.520;6.764;2022-09-02T06:41:24;4.78;;;1.40;;
26502;SDS011;14177;51.520;6.764;2022-09-02T06:43:58;7.88;;;1.60;;
26502;SDS011;14177;51.520;6.764;2022-09-02T06:46:36;6.95;;;1.45;;
26502;SDS011;14177;51.520;6.764;2022-09-02T06:49:11;8.68;;;1.40;;
26502;SDS011;14177;51.520;6.764;2022-09-02T06:51:40;6.00;;;1.55;;
26502;SDS011;14177;51.520;6.764;2022-09-02T06:54:16;5.95;;;1.60;;
26502;SDS011;14177;51.520;6.764;2022-09-02T06:56:48;11.93;;;2.15;;
26502;SDS011;14177;51.520;6.764;2022-09-02T06:59:21;11.85;;;1.55;;
26502;SDS011;14177;51.520;6.764;2022-09-02T07:01:55;4.72;;;1.40;;
26502;SDS011;14177;51.520;6.764;2022-09-02T07:04:24;3.90;;;1.20;;
26502;SDS011;14177;51.520;6.764;2022-09-02T07:07:13;8.23;;;1.60;;
26502;SDS011;14177;51.520;6.764;2022-09-02T07:09:50;9.55;;;1.58;;
26502;SDS011;14177;51.520;6.764;2022-09-02T07:12:18;3.50;;;1.35;;
26502;SDS011;14177;51.520;6.764;2022-09-02T07:14:50;5.55;;;1.70;;
26502;SDS011;14177;51.520;6.764;2022-09-02T07:17:22;10.60;;;1.80;;
26502;SDS011;14177;51.520;6.764;2022-09-02T07:19:55;8.60;;;1.40;;
26502;SDS011;14177;51.520;6.764;2022-09-02T07:22:28;8.55;;;1.58;;
26502;SDS011;14177;51.520;6.764;2022-09-02T07:24:55;11.10;;;1.75;;
26502;SDS011;14177;51.520;6.764;2022-09-02T07:27:24;9.52;;;1.55;;
26502;SDS011;14177;51.520;6.764;2022-09-02T07:29:54;4.68;;;1.38;;
26502;SDS011;14177;51.520;6.764;2022-09-02T07:32:21;6.15;;;1.40;;
26502;SDS011;14177;51.520;6.764;2022-09-02T07:34:48;4.78;;;1.52;;
26502;SDS011;14177;51.520;6.764;2022-09-02T07:37:16;5.07;;;1.50;;
26502;SDS011;14177;51.520;6.764;2022-09-02T07:39:43;12.18;;;2.00;;
26502;SDS011;14177;51.520;6.764;2022-09-02T07:42:13;3.45;;;1.58;;
26502;SDS011;14177;51.520;6.764;2022-09-02T07:44:43;6.38;;;1.80;;
26502;SDS011;14177;51.520;6.764;2022-09-02T07:47:10;5.95;;;1.73;;
26502;SDS011;14177;51.520;6.764;2022-09-02T07:49:40;3.80;;;1.73;;
26502;SDS011;14177;51.520;6.764;2022-09-02T07:52:28;7.95;;;1.60;;
26502;SDS011;14177;51.520;6.764;2022-09-02T07:54:56;10.18;;;1.60;;
26502;SDS011;14177;51.520;6.764;2022-09-02T07:57:26;5.72;;;1.50;;
26502;SDS011;14177;51.520;6.764;2022-09-02T07:59:54;7.68;;;1.90;;
26502;SDS011;14177;51.520;6.764;2022-09-02T08:02:21;6.20;;;1.60;;
26502;SDS011;14177;51.520;6.764;2022-09-02T08:04:51;4.85;;;1.75;;
26502;SDS011;14177;51.520;6.764;2022-09-02T08:07:19;4.13;;;1.38;;
26502;SDS011;14177;51.520;6.764;2022-09-02T08:09:50;18.75;;;2.20;;
26502;SDS011;14177;51.520;6.764;2022-09-02T08:12:18;14.48;;;2.08;;
26502;SDS011;14177;51.520;6.764;2022-09-02T08:14:47;6.90;;;1.70;;
26502;SDS011;14177;51.520;6.764;2022-09-02T08:17:14;7.65;;;1.77;;
26502;SDS011;14177;51.520;6.764;2022-09-02T08:19:42;3.47;;;1.50;;
26502;SDS011;14177;51.520;6.764;2022-09-02T08:22:10;10.85;;;1.42;;
26502;SDS011;14177;51.520;6.764;2022-09-02T08:24:37;6.22;;;1.83;;
26502;SDS011;14177;51.520;6.764;2022-09-02T08:27:04;8.32;;;1.50;;
26502;SDS011;14177;51.520;6.764;2022-09-02T08:29:31;6.82;;;1.60;;
26502;SDS011;14177;51.520;6.764;2022-09-02T08:31:58;4.88;;;1.90;;
26502;SDS011;14177;51.520;6.764;2022-09-02T08:34:28;8.20;;;1.73;;
26502;SDS011;14177;51.520;6.764;2022-09-02T08:36:55;7.22;;;1.52;;
26502;SDS011;14177;51.520;6.764;2022-09-02T08:39:23;7.43;;;1.70;;
26502;SDS011;14177;51.520;6.764;2022-09-02T08:44:39;3.67;;;1.40;;
26502;SDS011;14177;51.520;6.764;2022-09-02T08:47:09;9.75;;;1.83;;
26502;SDS011;14177;51.520;6.764;2022-09-02T08:49:45;7.47;;;1.70;;
26502;SDS011;14177;51.520;6.764;2022-09-02T08:52:27;5.72;;;1.90;;
26502;SDS011;14177;51.520;6.764;2022-09-02T08:55:07;10.60;;;1.80;;
26502;SDS011;14177;51.520;6.764;2022-09-02T08:57:43;7.25;;;1.90;;
26502;SDS011;14177;51.520;6.764;2022-09-02T09:00:17;8.55;;;2.10;;
26502;SDS011;14177;51.520;6.764;2022-09-02T09:06:00;4.93;;;1.80;;
26502;SDS011;14177;51.520;6.764;2022-09-02T09:08:44;8.23;;;1.50;;
26502;SDS011;14177;51.520;6.764;2022-09-02T09:11:35;6.07;;;1.38;;
26502;SDS011;14177;51.520;6.764;2022-09-02T09:14:16;4.45;;;1.55;;
26502;SDS011;14177;51.520;6.764;2022-09-02T09:17:18;10.52;;;2.47;;
26502;SDS011;14177;51.520;6.764;2022-09-02T09:19:55;3.40;;;1.45;;
26502;SDS011;14177;51.520;6.764;2022-09-02T09:22:48;6.47;;;1.50;;
26502;SDS011;14177;51.520;6.764;2022-09-02T09:25:38;4.38;;;1.60;;
26502;SDS011;14177;51.520;6.764;2022-09-02T09:28:12;5.85;;;1.33;;
26502;SDS011;14177;51.520;6.764;2022-09-02T09:31:12;8.35;;;1.23;;
26502;SDS011;14177;51.520;6.764;2022-09-02T09:34:13;5.82;;;1.60;;
26502;SDS011;14177;51.520;6.764;2022-09-02T09:43:47;2.70;;;1.40;;
26502;SDS011;14177;51.520;6.764;2022-09-02T09:46:27;7.55;;;1.58;;
26502;SDS011;14177;51.520;6.764;2022-09-02T09:49:07;3.03;;;1.67;;
26502;SDS011;14177;51.520;6.764;2022-09-02T09:51:54;5.68;;;1.88;;
26502;SDS011;14177;51.520;6.764;2022-09-02T09:54:24;7.47;;;1.50;;
26502;SDS011;14177;51.520;6.764;2022-09-02T09:57:11;6.22;;;1.40;;
26502;SDS011;14177;51.520;6.764;2022-09-02T09:59:48;4.47;;;1.40;;
26502;SDS011;14177;51.520;6.764;2022-09-02T10:02:25;6.07;;;1.52;;
26502;SDS011;14177;51.520;6.764;2022-09-02T10:05:09;3.50;;;1.20;;
26502;SDS011;14177;51.520;6.764;2022-09-02T10:11:01;4.22;;;1.40;;
26502;SDS011;14177;51.520;6.764;2022-09-02T10:13:35;7.88;;;1.58;;
26502;SDS011;14177;51.520;6.764;2022-09-02T10:40:58;4.90;;;1.10;;
26502;SDS011;14177;51.520;6.764;2022-09-02T10:45:00;2.95;;;1.30;;
26502;SDS011;14177;51.520;6.764;2022-09-02T11:02:54;5.55;;;1.50;;
26502;SDS011;14177;51.520;6.764;2022-09-02T11:06:27;4.82;;;1.48;;
26502;SDS011;14177;51.520;6.764;2022-09-02T11:09:39;3.85;;;1.17;;
26502;SDS011;14177;51.520;6.764;2022-09-02T11:27:23;3.15;;;1.10;;
26502;SDS011;14177;51.520;6.764;2022-09-02T11:34:48;2.80;;;1.25;;
26502;SDS011;14177;51.520;6.764;2022-09-02T11:57:37;4.05;;;0.85;;
26502;SDS011;14177;51.520;6.764;2022-09-02T12:14:59;4.70;;;1.30;;
26502;SDS011;14177;51.520;6.764;2022-09-02T12:47:00;1.83;;;1.13;;
26502;SDS011;14177;51.520;6.764;2022-09-02T12:54:11;2.20;;;0.70;;
26502;SDS011;14177;51.520;6.764;2022-09-02T12:57:15;1.75;;;0.77;;
26502;SDS011;14177;51.520;6.764;2022-09-02T13:17:44;1.38;;;0.77;;
26502;SDS011;14177;51.520;6.764;2022-09-02T13:26:50;3.63;;;0.88;;
26502;SDS011;14177;51.520;6.764;2022-09-02T13:32:33;1.17;;;0.90;;
26502;SDS011;14177;51.520;6.764;2022-09-02T13:35:02;3.60;;;0.80;;
26502;SDS011;14177;51.520;6.764;2022-09-02T13:37:40;3.13;;;1.00;;
26502;SDS011;14177;51.520;6.764;2022-09-02T13:40:16;1.33;;;0.73;;
26502;SDS011;14177;51.520;6.764;2022-09-02T13:42:48;1.27;;;0.70;;
26502;SDS011;14177;51.520;6.764;2022-09-02T13:45:21;1.10;;;0.90;;
26502;SDS011;14177;51.520;6.764;2022-09-02T13:47:56;5.00;;;1.10;;
26502;SDS011;14177;51.520;6.764;2022-09-02T13:50:28;1.10;;;0.80;;
26502;SDS011;14177;51.520;6.764;2022-09-02T13:52:57;1.00;;;0.77;;
26502;SDS011;14177;51.520;6.764;2022-09-02T13:55:52;2.75;;;0.70;;
26502;SDS011;14177;51.520;6.764;2022-09-02T14:00:55;3.08;;;0.90;;
26502;SDS011;14177;51.520;6.764;2022-09-02T14:03:45;2.42;;;0.80;;
26502;SDS011;14177;51.520;6.764;2022-09-02T14:06:19;1.10;;;0.80;;
26502;SDS011;14177;51.520;6.764;2022-09-02T14:08:51;4.65;;;1.00;;
26502;SDS011;14177;51.520;6.764;2022-09-02T14:11:25;2.80;;;0.95;;
26502;SDS011;14177;51.520;6.764;2022-09-02T14:13:55;1.50;;;0.88;;
26502;SDS011;14177;51.520;6.764;2022-09-02T14:16:44;1.42;;;0.82;;
26502;SDS011;14177;51.520;6.764;2022-09-02T14:23:18;3.83;;;0.80;;
26502;SDS011;14177;51.520;6.764;2022-09-02T14:26:35;2.63;;;0.70;;
26502;SDS011;14177;51.520;6.764;2022-09-02T14:29:30;2.90;;;0.80;;
26502;SDS011;14177;51.520;6.764;2022-09-02T14:35:34;1.83;;;0.93;;
26502;SDS011;14177;51.520;6.764;2022-09-02T14:38:35;0.90;;;0.70;;
26502;SDS011;14177;51.520;6.764;2022-09-02T14:41:36;1.27;;;0.90;;
26502;SDS011;14177;51.520;6.764;2022-09-02T14:44:28;1.10;;;0.80;;
26502;SDS011;14177;51.520;6.764;2022-09-02T14:47:07;1.20;;;0.80;;
26502;SDS011;14177;51.520;6.764;2022-09-02T14:49:51;1.75;;;0.80;;
26502;SDS011;14177;51.520;6.764;2022-09-02T14:52:33;1.23;;;0.80;;
26502;SDS011;14177;51.520;6.764;2022-09-02T14:55:02;2.50;;;0.85;;
26502;SDS011;14177;51.520;6.764;2022-09-02T14:57:32;4.72;;;1.00;;
26502;SDS011;14177;51.520;6.764;2022-09-02T15:00:22;1.40;;;0.95;;
26502;SDS011;14177;51.520;6.764;2022-09-02T15:02:56;4.22;;;1.23;;
26502;SDS011;14177;51.520;6.764;2022-09-02T15:05:42;2.47;;;1.00;;
26502;SDS011;14177;51.520;6.764;2022-09-02T15:10:57;4.82;;;0.90;;
26502;SDS011;14177;51.520;6.764;2022-09-02T15:13:43;3.67;;;0.88;;
26502;SDS011;14177;51.520;6.764;2022-09-02T15:17:15;1.73;;;0.80;;
26502;SDS011;14177;51.520;6.764;2022-09-02T15:19:55;1.20;;;0.68;;
26502;SDS011;14177;51.520;6.764;2022-09-02T15:23:04;2.95;;;1.00;;
26502;SDS011;14177;51.520;6.764;2022-09-02T15:25:51;2.70;;;1.00;;
26502;SDS011;14177;51.520;6.764;2022-09-02T15:28:24;3.53;;;0.80;;
26502;SDS011;14177;51.520;6.764;2022-09-02T15:33:40;4.53;;;0.90;;
26502;SDS011;14177;51.520;6.764;2022-09-02T15:36:35;1.63;;;0.77;;
26502;SDS011;14177;51.520;6.764;2022-09-02T15:39:44;1.48;;;0.68;;
26502;SDS011;14177;51.520;6.764;2022-09-02T15:42:24;1.02;;;0.65;;
26502;SDS011;14177;51.520;6.764;2022-09-02T15:52:55;1.55;;;0.90;;
26502;SDS011;14177;51.520;6.764;2022-09-02T15:56:23;5.22;;;1.20;;
26502;SDS011;14177;51.520;6.764;2022-09-02T15:59:02;4.07;;;0.90;;
26502;SDS011;14177;51.520;6.764;2022-09-02T16:02:36;1.63;;;0.80;;
26502;SDS011;14177;51.520;6.764;2022-09-02T16:09:03;4.60;;;1.17;;
26502;SDS011;14177;51.520;6.764;2022-09-02T16:11:51;1.98;;;0.88;;
26502;SDS011;14177;51.520;6.764;2022-09-02T16:14:33;3.70;;;0.98;;
26502;SDS011;14177;51.520;6.764;2022-09-02T16:17:36;2.20;;;0.88;;
26502;SDS011;14177;51.520;6.764;2022-09-02T16:25:25;3.55;;;0.85;;
26502;SDS011;14177;51.520;6.764;2022-09-02T16:27:52;1.98;;;0.85;;
26502;SDS011;14177;51.520;6.764;2022-09-02T16:30:20;1.52;;;0.73;;
26502;SDS011;14177;51.520;6.764;2022-09-02T16:32:47;1.55;;;0.90;;
26502;SDS011;14177;51.520;6.764;2022-09-02T16:35:16;1.52;;;0.95;;
26502;SDS011;14177;51.520;6.764;2022-09-02T16:37:43;2.17;;;0.80;;
26502;SDS011;14177;51.520;6.764;2022-09-02T16:40:12;2.17;;;0.90;;
26502;SDS011;14177;51.520;6.764;2022-09-02T16:42:46;2.53;;;0.98;;
26502;SDS011;14177;51.520;6.764;2022-09-02T16:45:26;4.43;;;1.00;;
26502;SDS011;14177;51.520;6.764;2022-09-02T16:47:56;1.83;;;1.08;;
26502;SDS011;14177;51.520;6.764;2022-09-02T16:51:02;2.67;;;0.95;;
26502;SDS011;14177;51.520;6.764;2022-09-02T16:56:14;2.03;;;1.08;;
26502;SDS011;14177;51.520;6.764;2022-09-02T16:58:47;3.58;;;0.95;;
26502;SDS011;14177;51.520;6.764;2022-09-02T17:01:16;1.10;;;0.80;;
26502;SDS011;14177;51.520;6.764;2022-09-02T17:04:00;7.20;;;1.00;;
26502;SDS011;14177;51.520;6.764;2022-09-02T17:06:31;2.85;;;1.15;;
26502;SDS011;14177;51.520;6.764;2022-09-02T17:09:07;2.25;;;1.00;;
26502;SDS011;14177;51.520;6.764;2022-09-02T17:25:57;14.30;;;5.93;;
26502;SDS011;14177;51.520;6.764;2022-09-02T17:28:23;8.95;;;4.47;;
26502;SDS011;14177;51.520;6.764;2022-09-02T17:30:52;11.07;;;4.90;;
26502;SDS011;14177;51.520;6.764;2022-09-02T17:33:19;11.00;;;5.30;;
26502;SDS011;14177;51.520;6.764;2022-09-02T17:35:53;6.75;;;3.05;;
26502;SDS011;14177;51.520;6.764;2022-09-02T17:47:57;2.40;;;1.02;;
